Terminal Aerodrome Forecast
Issued by NWS North Platte, NE

Home | Current Version | Previous Version | Graphics & Text | Print | Product List | Glossary On
Versions: 1 2 3 4 5 6 7 8 9 10 11 12 13
340
FTUS43 KLBF 291126
TAFVTN
TAF
KVTN 291126Z 2912/3012 VRB06KT P6SM SKC
     FM292000 09008KT P6SM SCT100
     FM292200 09010KT P6SM BKN100 PROB30 3001/3007 5SM -TSRA
      BKN060CB
     FM300800 14012KT P6SM BKN150=

USA.gov is the U.S. government's official web portal to all federal, state and local government web resources and services.